sensor_id;sensor_type;location;lat;lon;timestamp;P1;P2;P0
71858;PMS5003;59713;50.866;4.324;2023-12-29T00:00:07;3;3;
71858;PMS5003;59713;50.866;4.324;2023-12-29T00:01:07;3;3;
71858;PMS5003;59713;50.866;4.324;2023-12-29T00:02:07;3;3;
71858;PMS5003;59713;50.866;4.324;2023-12-29T00:03:07;9;3;
71858;PMS5003;59713;50.866;4.324;2023-12-29T00:04:07;9;3;
71858;PMS5003;59713;50.866;4.324;2023-12-29T00:05:07;9;3;
71858;PMS5003;59713;50.866;4.324;2023-12-29T00:06:07;5;2;
71858;PMS5003;59713;50.866;4.324;2023-12-29T00:07:08;5;2;
71858;PMS5003;59713;50.866;4.324;2023-12-29T00:07:08;5;2;
71858;PMS5003;59713;50.866;4.324;2023-12-29T00:08:09;5;2;
71858;PMS5003;59713;50.866;4.324;2023-12-29T00:09:08;5;3;
71858;PMS5003;59713;50.866;4.324;2023-12-29T00:10:07;5;3;
71858;PMS5003;59713;50.866;4.324;2023-12-29T00:11:07;5;3;
71858;PMS5003;59713;50.866;4.324;2023-12-29T00:12:08;4;2;
71858;PMS5003;59713;50.866;4.324;2023-12-29T00:13:07;4;2;
71858;PMS5003;59713;50.866;4.324;2023-12-29T00:14:07;4;2;
71858;PMS5003;59713;50.866;4.324;2023-12-29T00:15:07;5;2;
71858;PMS5003;59713;50.866;4.324;2023-12-29T00:16:07;5;2;
71858;PMS5003;59713;50.866;4.324;2023-12-29T00:16:07;5;2;
71858;PMS5003;59713;50.866;4.324;2023-12-29T00:17:07;5;2;
71858;PMS5003;59713;50.866;4.324;2023-12-29T00:18:07;3;3;
71858;PMS5003;59713;50.866;4.324;2023-12-29T00:19:07;3;3;
71858;PMS5003;59713;50.866;4.324;2023-12-29T00:20:08;3;3;
71858;PMS5003;59713;50.866;4.324;2023-12-29T00:21:07;6;2;
71858;PMS5003;59713;50.866;4.324;2023-12-29T00:22:07;6;2;
71858;PMS5003;59713;50.866;4.324;2023-12-29T00:23:07;6;2;
71858;PMS5003;59713;50.866;4.324;2023-12-29T00:24:07;5;2;
71858;PMS5003;59713;50.866;4.324;2023-12-29T00:25:07;5;2;
71858;PMS5003;59713;50.866;4.324;2023-12-29T00:26:07;5;2;
71858;PMS5003;59713;50.866;4.324;2023-12-29T00:27:07;4;4;
71858;PMS5003;59713;50.866;4.324;2023-12-29T00:28:07;4;4;
71858;PMS5003;59713;50.866;4.324;2023-12-29T00:29:07;4;4;
71858;PMS5003;59713;50.866;4.324;2023-12-29T00:30:08;5;2;
71858;PMS5003;59713;50.866;4.324;2023-12-29T00:31:07;5;2;
71858;PMS5003;59713;50.866;4.324;2023-12-29T00:32:07;5;2;
71858;PMS5003;59713;50.866;4.324;2023-12-29T00:33:07;2;2;
71858;PMS5003;59713;50.866;4.324;2023-12-29T00:34:07;2;2;
71858;PMS5003;59713;50.866;4.324;2023-12-29T00:34:07;2;2;
71858;PMS5003;59713;50.866;4.324;2023-12-29T00:35:08;2;2;
71858;PMS5003;59713;50.866;4.324;2023-12-29T00:36:07;5;3;
71858;PMS5003;59713;50.866;4.324;2023-12-29T00:37:07;5;3;
71858;PMS5003;59713;50.866;4.324;2023-12-29T00:38:07;5;3;
71858;PMS5003;59713;50.866;4.324;2023-12-29T00:39:07;7;4;
71858;PMS5003;59713;50.866;4.324;2023-12-29T00:40:07;7;4;
71858;PMS5003;59713;50.866;4.324;2023-12-29T00:41:07;7;4;
71858;PMS5003;59713;50.866;4.324;2023-12-29T00:42:07;4;4;
71858;PMS5003;59713;50.866;4.324;2023-12-29T00:43:07;4;4;
71858;PMS5003;59713;50.866;4.324;2023-12-29T00:43:07;4;4;
71858;PMS5003;59713;50.866;4.324;2023-12-29T00:44:07;4;4;
71858;PMS5003;59713;50.866;4.324;2023-12-29T00:45:08;4;3;
71858;PMS5003;59713;50.866;4.324;2023-12-29T00:46:07;4;3;
71858;PMS5003;59713;50.866;4.324;2023-12-29T00:47:07;4;3;
71858;PMS5003;59713;50.866;4.324;2023-12-29T00:48:07;1;1;
71858;PMS5003;59713;50.866;4.324;2023-12-29T00:49:07;1;1;
71858;PMS5003;59713;50.866;4.324;2023-12-29T00:50:09;1;1;
71858;PMS5003;59713;50.866;4.324;2023-12-29T00:51:07;7;3;
71858;PMS5003;59713;50.866;4.324;2023-12-29T00:52:07;7;3;
71858;PMS5003;59713;50.866;4.324;2023-12-29T00:52:07;7;3;
71858;PMS5003;59713;50.866;4.324;2023-12-29T00:53:07;7;3;
71858;PMS5003;59713;50.866;4.324;2023-12-29T00:54:07;6;1;
71858;PMS5003;59713;50.866;4.324;2023-12-29T00:55:07;6;1;
71858;PMS5003;59713;50.866;4.324;2023-12-29T00:56:09;6;1;
71858;PMS5003;59713;50.866;4.324;2023-12-29T00:57:07;7;2;
71858;PMS5003;59713;50.866;4.324;2023-12-29T00:58:07;7;2;
71858;PMS5003;59713;50.866;4.324;2023-12-29T00:59:07;7;2;
71858;PMS5003;59713;50.866;4.324;2023-12-29T01:00:10;4;2;
71858;PMS5003;59713;50.866;4.324;2023-12-29T01:01:07;4;2;
71858;PMS5003;59713;50.866;4.324;2023-12-29T01:01:08;4;2;
71858;PMS5003;59713;50.866;4.324;2023-12-29T01:02:07;4;2;
71858;PMS5003;59713;50.866;4.324;2023-12-29T01:03:07;2;1;
71858;PMS5003;59713;50.866;4.324;2023-12-29T01:04:07;2;1;
71858;PMS5003;59713;50.866;4.324;2023-12-29T01:05:07;2;1;
71858;PMS5003;59713;50.866;4.324;2023-12-29T01:06:07;5;3;
71858;PMS5003;59713;50.866;4.324;2023-12-29T01:07:07;5;3;
71858;PMS5003;59713;50.866;4.324;2023-12-29T01:08:07;5;3;
71858;PMS5003;59713;50.866;4.324;2023-12-29T01:09:07;8;3;
71858;PMS5003;59713;50.866;4.324;2023-12-29T01:10:08;8;3;
71858;PMS5003;59713;50.866;4.324;2023-12-29T01:10:08;8;3;
71858;PMS5003;59713;50.866;4.324;2023-12-29T01:11:07;8;3;
71858;PMS5003;59713;50.866;4.324;2023-12-29T01:12:07;6;3;
71858;PMS5003;59713;50.866;4.324;2023-12-29T01:13:07;6;3;
71858;PMS5003;59713;50.866;4.324;2023-12-29T01:14:07;6;3;
71858;PMS5003;59713;50.866;4.324;2023-12-29T01:15:08;4;2;
71858;PMS5003;59713;50.866;4.324;2023-12-29T01:16:07;4;2;
71858;PMS5003;59713;50.866;4.324;2023-12-29T01:17:07;4;2;
71858;PMS5003;59713;50.866;4.324;2023-12-29T01:18:07;4;3;
71858;PMS5003;59713;50.866;4.324;2023-12-29T01:19:07;4;3;
71858;PMS5003;59713;50.866;4.324;2023-12-29T01:19:07;4;3;
71858;PMS5003;59713;50.866;4.324;2023-12-29T01:20:08;4;3;
71858;PMS5003;59713;50.866;4.324;2023-12-29T01:21:07;6;2;
71858;PMS5003;59713;50.866;4.324;2023-12-29T01:22:07;6;2;
71858;PMS5003;59713;50.866;4.324;2023-12-29T01:23:07;6;2;
71858;PMS5003;59713;50.866;4.324;2023-12-29T01:24:07;6;3;
71858;PMS5003;59713;50.866;4.324;2023-12-29T01:25:07;6;3;
71858;PMS5003;59713;50.866;4.324;2023-12-29T01:26:07;6;3;
71858;PMS5003;59713;50.866;4.324;2023-12-29T01:27:07;2;1;
71858;PMS5003;59713;50.866;4.324;2023-12-29T01:28:07;2;1;
71858;PMS5003;59713;50.866;4.324;2023-12-29T01:29:07;2;1;
71858;PMS5003;59713;50.866;4.324;2023-12-29T01:29:07;2;1;
71858;PMS5003;59713;50.866;4.324;2023-12-29T01:30:08;3;2;
71858;PMS5003;59713;50.866;4.324;2023-12-29T01:31:07;3;2;
71858;PMS5003;59713;50.866;4.324;2023-12-29T01:32:07;3;2;
71858;PMS5003;59713;50.866;4.324;2023-12-29T01:33:07;6;1;
71858;PMS5003;59713;50.866;4.324;2023-12-29T01:34:07;6;1;
71858;PMS5003;59713;50.866;4.324;2023-12-29T01:35:09;6;1;
71858;PMS5003;59713;50.866;4.324;2023-12-29T01:36:07;4;3;
71858;PMS5003;59713;50.866;4.324;2023-12-29T01:37:07;4;3;
71858;PMS5003;59713;50.866;4.324;2023-12-29T01:38:07;4;3;
71858;PMS5003;59713;50.866;4.324;2023-12-29T01:38:07;4;3;
71858;PMS5003;59713;50.866;4.324;2023-12-29T01:39:07;4;2;
71858;PMS5003;59713;50.866;4.324;2023-12-29T01:40:08;4;2;
71858;PMS5003;59713;50.866;4.324;2023-12-29T01:41:07;4;2;
71858;PMS5003;59713;50.866;4.324;2023-12-29T01:42:07;7;2;
71858;PMS5003;59713;50.866;4.324;2023-12-29T01:43:07;7;2;
71858;PMS5003;59713;50.866;4.324;2023-12-29T01:44:17;7;2;
71858;PMS5003;59713;50.866;4.324;2023-12-29T01:45:08;3;3;
71858;PMS5003;59713;50.866;4.324;2023-12-29T01:46:07;3;3;
71858;PMS5003;59713;50.866;4.324;2023-12-29T01:47:10;3;3;
71858;PMS5003;59713;50.866;4.324;2023-12-29T01:47:10;3;3;
71858;PMS5003;59713;50.866;4.324;2023-12-29T01:48:07;2;2;
71858;PMS5003;59713;50.866;4.324;2023-12-29T01:49:07;2;2;
71858;PMS5003;59713;50.866;4.324;2023-12-29T01:50:07;2;2;
71858;PMS5003;59713;50.866;4.324;2023-12-29T01:51:07;4;2;
71858;PMS5003;59713;50.866;4.324;2023-12-29T01:52:07;4;2;
71858;PMS5003;59713;50.866;4.324;2023-12-29T01:53:07;4;2;
71858;PMS5003;59713;50.866;4.324;2023-12-29T01:54:07;2;2;
71858;PMS5003;59713;50.866;4.324;2023-12-29T01:55:08;2;2;
71858;PMS5003;59713;50.866;4.324;2023-12-29T01:56:07;2;2;
71858;PMS5003;59713;50.866;4.324;2023-12-29T01:56:07;2;2;
71858;PMS5003;59713;50.866;4.324;2023-12-29T01:57:08;4;2;
71858;PMS5003;59713;50.866;4.324;2023-12-29T01:58:08;4;2;
71858;PMS5003;59713;50.866;4.324;2023-12-29T01:59:07;4;2;
71858;PMS5003;59713;50.866;4.324;2023-12-29T02:00:08;3;2;
71858;PMS5003;59713;50.866;4.324;2023-12-29T02:01:07;3;2;
71858;PMS5003;59713;50.866;4.324;2023-12-29T02:02:07;3;2;
71858;PMS5003;59713;50.866;4.324;2023-12-29T02:03:07;3;2;
71858;PMS5003;59713;50.866;4.324;2023-12-29T02:04:08;3;2;
71858;PMS5003;59713;50.866;4.324;2023-12-29T02:05:08;3;2;
71858;PMS5003;59713;50.866;4.324;2023-12-29T02:05:08;3;2;
71858;PMS5003;59713;50.866;4.324;2023-12-29T02:06:07;8;1;
71858;PMS5003;59713;50.866;4.324;2023-12-29T02:07:07;8;1;
71858;PMS5003;59713;50.866;4.324;2023-12-29T02:08:07;8;1;
71858;PMS5003;59713;50.866;4.324;2023-12-29T02:09:07;2;1;
71858;PMS5003;59713;50.866;4.324;2023-12-29T02:10:07;2;1;
71858;PMS5003;59713;50.866;4.324;2023-12-29T02:11:07;2;1;
71858;PMS5003;59713;50.866;4.324;2023-12-29T02:12:07;2;2;
71858;PMS5003;59713;50.866;4.324;2023-12-29T02:13:07;2;2;
71858;PMS5003;59713;50.866;4.324;2023-12-29T02:14:07;2;2;
71858;PMS5003;59713;50.866;4.324;2023-12-29T02:15:07;7;2;
71858;PMS5003;59713;50.866;4.324;2023-12-29T02:15:08;7;2;
71858;PMS5003;59713;50.866;4.324;2023-12-29T02:16:09;7;2;
71858;PMS5003;59713;50.866;4.324;2023-12-29T02:17:09;7;2;
71858;PMS5003;59713;50.866;4.324;2023-12-29T02:18:09;1;1;
71858;PMS5003;59713;50.866;4.324;2023-12-29T02:19:11;1;1;
71858;PMS5003;59713;50.866;4.324;2023-12-29T02:20:08;1;1;
71858;PMS5003;59713;50.866;4.324;2023-12-29T02:21:07;8;5;
71858;PMS5003;59713;50.866;4.324;2023-12-29T02:22:08;8;5;
71858;PMS5003;59713;50.866;4.324;2023-12-29T02:23:07;8;5;
71858;PMS5003;59713;50.866;4.324;2023-12-29T02:24:07;2;1;
71858;PMS5003;59713;50.866;4.324;2023-12-29T02:24:07;2;1;
71858;PMS5003;59713;50.866;4.324;2023-12-29T02:25:07;2;1;
71858;PMS5003;59713;50.866;4.324;2023-12-29T02:26:09;2;1;
71858;PMS5003;59713;50.866;4.324;2023-12-29T02:27:12;7;2;
71858;PMS5003;59713;50.866;4.324;2023-12-29T02:28:09;7;2;
71858;PMS5003;59713;50.866;4.324;2023-12-29T02:29:07;7;2;
71858;PMS5003;59713;50.866;4.324;2023-12-29T02:30:09;8;3;
71858;PMS5003;59713;50.866;4.324;2023-12-29T02:31:08;8;3;
71858;PMS5003;59713;50.866;4.324;2023-12-29T02:32:08;8;3;
71858;PMS5003;59713;50.866;4.324;2023-12-29T02:33:13;7;4;
71858;PMS5003;59713;50.866;4.324;2023-12-29T02:33:14;7;4;
71858;PMS5003;59713;50.866;4.324;2023-12-29T02:34:07;7;4;
71858;PMS5003;59713;50.866;4.324;2023-12-29T02:35:08;7;4;
71858;PMS5003;59713;50.866;4.324;2023-12-29T02:36:08;4;1;
71858;PMS5003;59713;50.866;4.324;2023-12-29T02:37:07;4;1;
71858;PMS5003;59713;50.866;4.324;2023-12-29T02:38:07;4;1;
71858;PMS5003;59713;50.866;4.324;2023-12-29T02:39:08;5;5;
71858;PMS5003;59713;50.866;4.324;2023-12-29T02:40:08;5;5;
71858;PMS5003;59713;50.866;4.324;2023-12-29T02:41:07;5;5;
71858;PMS5003;59713;50.866;4.324;2023-12-29T02:42:07;8;2;
71858;PMS5003;59713;50.866;4.324;2023-12-29T02:42:07;8;2;
71858;PMS5003;59713;50.866;4.324;2023-12-29T02:43:08;8;2;
71858;PMS5003;59713;50.866;4.324;2023-12-29T02:44:07;8;2;
71858;PMS5003;59713;50.866;4.324;2023-12-29T02:45:08;4;4;
71858;PMS5003;59713;50.866;4.324;2023-12-29T02:46:07;4;4;
71858;PMS5003;59713;50.866;4.324;2023-12-29T02:47:07;4;4;
71858;PMS5003;59713;50.866;4.324;2023-12-29T02:48:07;9;5;
71858;PMS5003;59713;50.866;4.324;2023-12-29T02:49:07;9;5;
71858;PMS5003;59713;50.866;4.324;2023-12-29T02:50:08;9;5;
71858;PMS5003;59713;50.866;4.324;2023-12-29T02:51:07;4;2;
71858;PMS5003;59713;50.866;4.324;2023-12-29T02:51:07;4;2;
71858;PMS5003;59713;50.866;4.324;2023-12-29T02:52:07;4;2;
71858;PMS5003;59713;50.866;4.324;2023-12-29T02:53:07;4;2;
71858;PMS5003;59713;50.866;4.324;2023-12-29T02:54:07;5;2;
71858;PMS5003;59713;50.866;4.324;2023-12-29T02:55:07;5;2;
71858;PMS5003;59713;50.866;4.324;2023-12-29T02:56:07;5;2;
71858;PMS5003;59713;50.866;4.324;2023-12-29T02:57:07;7;1;
71858;PMS5003;59713;50.866;4.324;2023-12-29T02:58:08;7;1;
71858;PMS5003;59713;50.866;4.324;2023-12-29T02:59:07;7;1;
71858;PMS5003;59713;50.866;4.324;2023-12-29T03:00:07;5;4;
71858;PMS5003;59713;50.866;4.324;2023-12-29T03:00:08;5;4;
71858;PMS5003;59713;50.866;4.324;2023-12-29T03:01:07;5;4;
71858;PMS5003;59713;50.866;4.324;2023-12-29T03:02:07;5;4;
71858;PMS5003;59713;50.866;4.324;2023-12-29T03:03:07;3;1;
71858;PMS5003;59713;50.866;4.324;2023-12-29T03:04:07;3;1;
71858;PMS5003;59713;50.866;4.324;2023-12-29T03:05:07;3;1;
71858;PMS5003;59713;50.866;4.324;2023-12-29T03:06:07;4;2;
71858;PMS5003;59713;50.866;4.324;2023-12-29T03:07:07;4;2;
71858;PMS5003;59713;50.866;4.324;2023-12-29T03:08:07;4;2;
71858;PMS5003;59713;50.866;4.324;2023-12-29T03:09:07;2;1;
71858;PMS5003;59713;50.866;4.324;2023-12-29T03:10:08;2;1;
71858;PMS5003;59713;50.866;4.324;2023-12-29T03:10:08;2;1;
71858;PMS5003;59713;50.866;4.324;2023-12-29T03:11:07;2;1;
71858;PMS5003;59713;50.866;4.324;2023-12-29T03:12:07;4;4;
71858;PMS5003;59713;50.866;4.324;2023-12-29T03:13:07;4;4;
71858;PMS5003;59713;50.866;4.324;2023-12-29T03:14:07;4;4;
71858;PMS5003;59713;50.866;4.324;2023-12-29T03:15:08;3;1;
71858;PMS5003;59713;50.866;4.324;2023-12-29T03:16:07;3;1;
71858;PMS5003;59713;50.866;4.324;2023-12-29T03:17:07;3;1;
71858;PMS5003;59713;50.866;4.324;2023-12-29T03:18:07;5;3;
71858;PMS5003;59713;50.866;4.324;2023-12-29T03:19:07;5;3;
71858;PMS5003;59713;50.866;4.324;2023-12-29T03:19:07;5;3;
71858;PMS5003;59713;50.866;4.324;2023-12-29T03:20:08;5;3;
71858;PMS5003;59713;50.866;4.324;2023-12-29T03:21:07;2;2;
71858;PMS5003;59713;50.866;4.324;2023-12-29T03:22:07;2;2;
71858;PMS5003;59713;50.866;4.324;2023-12-29T03:23:07;2;2;
71858;PMS5003;59713;50.866;4.324;2023-12-29T03:24:07;7;4;
71858;PMS5003;59713;50.866;4.324;2023-12-29T03:25:07;7;4;
71858;PMS5003;59713;50.866;4.324;2023-12-29T03:26:07;7;4;
71858;PMS5003;59713;50.866;4.324;2023-12-29T03:27:10;4;2;
71858;PMS5003;59713;50.866;4.324;2023-12-29T03:28:07;4;2;
71858;PMS5003;59713;50.866;4.324;2023-12-29T03:28:07;4;2;
71858;PMS5003;59713;50.866;4.324;2023-12-29T03:29:07;4;2;
71858;PMS5003;59713;50.866;4.324;2023-12-29T03:30:08;6;3;
71858;PMS5003;59713;50.866;4.324;2023-12-29T03:31:07;6;3;
71858;PMS5003;59713;50.866;4.324;2023-12-29T03:32:07;6;3;
71858;PMS5003;59713;50.866;4.324;2023-12-29T03:33:07;6;3;
71858;PMS5003;59713;50.866;4.324;2023-12-29T03:34:08;6;3;
71858;PMS5003;59713;50.866;4.324;2023-12-29T03:35:08;6;3;
71858;PMS5003;59713;50.866;4.324;2023-12-29T03:36:08;9;1;
71858;PMS5003;59713;50.866;4.324;2023-12-29T03:37:09;9;1;
71858;PMS5003;59713;50.866;4.324;2023-12-29T03:38:07;9;1;
71858;PMS5003;59713;50.866;4.324;2023-12-29T03:38:07;9;1;
71858;PMS5003;59713;50.866;4.324;2023-12-29T03:39:07;5;2;
71858;PMS5003;59713;50.866;4.324;2023-12-29T03:40:08;5;2;
71858;PMS5003;59713;50.866;4.324;2023-12-29T03:41:07;5;2;
71858;PMS5003;59713;50.866;4.324;2023-12-29T03:42:07;5;3;
71858;PMS5003;59713;50.866;4.324;2023-12-29T03:43:07;5;3;
71858;PMS5003;59713;50.866;4.324;2023-12-29T03:44:07;5;3;
71858;PMS5003;59713;50.866;4.324;2023-12-29T03:45:08;2;1;
71858;PMS5003;59713;50.866;4.324;2023-12-29T03:46:15;2;1;
71858;PMS5003;59713;50.866;4.324;2023-12-29T03:47:09;2;1;
71858;PMS5003;59713;50.866;4.324;2023-12-29T03:48:07;5;4;
71858;PMS5003;59713;50.866;4.324;2023-12-29T03:48:07;5;4;
71858;PMS5003;59713;50.866;4.324;2023-12-29T03:49:07;5;4;
71858;PMS5003;59713;50.866;4.324;2023-12-29T03:50:08;5;4;
71858;PMS5003;59713;50.866;4.324;2023-12-29T03:51:07;2;1;
71858;PMS5003;59713;50.866;4.324;2023-12-29T03:52:07;2;1;
71858;PMS5003;59713;50.866;4.324;2023-12-29T03:53:07;2;1;
71858;PMS5003;59713;50.866;4.324;2023-12-29T03:54:07;3;2;
71858;PMS5003;59713;50.866;4.324;2023-12-29T03:55:07;3;2;
71858;PMS5003;59713;50.866;4.324;2023-12-29T03:56:08;3;2;
71858;PMS5003;59713;50.866;4.324;2023-12-29T03:57:07;3;3;
71858;PMS5003;59713;50.866;4.324;2023-12-29T03:57:07;3;3;
71858;PMS5003;59713;50.866;4.324;2023-12-29T03:58:07;3;3;
71858;PMS5003;59713;50.866;4.324;2023-12-29T03:59:07;3;3;
71858;PMS5003;59713;50.866;4.324;2023-12-29T04:00:10;2;1;
71858;PMS5003;59713;50.866;4.324;2023-12-29T04:01:09;2;1;
71858;PMS5003;59713;50.866;4.324;2023-12-29T04:02:07;2;1;
71858;PMS5003;59713;50.866;4.324;2023-12-29T04:03:07;4;2;
71858;PMS5003;59713;50.866;4.324;2023-12-29T04:04:07;4;2;
71858;PMS5003;59713;50.866;4.324;2023-12-29T04:05:08;4;2;
71858;PMS5003;59713;50.866;4.324;2023-12-29T04:06:08;3;2;
71858;PMS5003;59713;50.866;4.324;2023-12-29T04:06:08;3;2;
71858;PMS5003;59713;50.866;4.324;2023-12-29T04:07:07;3;2;
71858;PMS5003;59713;50.866;4.324;2023-12-29T04:08:07;3;2;
71858;PMS5003;59713;50.866;4.324;2023-12-29T04:09:07;6;3;
71858;PMS5003;59713;50.866;4.324;2023-12-29T04:10:08;6;3;
71858;PMS5003;59713;50.866;4.324;2023-12-29T04:11:07;6;3;
71858;PMS5003;59713;50.866;4.324;2023-12-29T04:12:07;3;1;
71858;PMS5003;59713;50.866;4.324;2023-12-29T04:13:07;3;1;
71858;PMS5003;59713;50.866;4.324;2023-12-29T04:14:07;3;1;
71858;PMS5003;59713;50.866;4.324;2023-12-29T04:15:08;4;2;
71858;PMS5003;59713;50.866;4.324;2023-12-29T04:15:08;4;2;
71858;PMS5003;59713;50.866;4.324;2023-12-29T04:16:07;4;2;
71858;PMS5003;59713;50.866;4.324;2023-12-29T04:17:07;4;2;
71858;PMS5003;59713;50.866;4.324;2023-12-29T04:18:07;2;1;
71858;PMS5003;59713;50.866;4.324;2023-12-29T04:19:07;2;1;
71858;PMS5003;59713;50.866;4.324;2023-12-29T04:20:08;2;1;
71858;PMS5003;59713;50.866;4.324;2023-12-29T04:21:07;1;1;
71858;PMS5003;59713;50.866;4.324;2023-12-29T04:22:08;1;1;
71858;PMS5003;59713;50.866;4.324;2023-12-29T04:23:08;1;1;
71858;PMS5003;59713;50.866;4.324;2023-12-29T04:24:07;7;2;
71858;PMS5003;59713;50.866;4.324;2023-12-29T04:25:08;7;2;
71858;PMS5003;59713;50.866;4.324;2023-12-29T04:25:08;7;2;
71858;PMS5003;59713;50.866;4.324;2023-12-29T04:26:08;7;2;
71858;PMS5003;59713;50.866;4.324;2023-12-29T04:27:08;3;3;
71858;PMS5003;59713;50.866;4.324;2023-12-29T04:28:08;3;3;
71858;PMS5003;59713;50.866;4.324;2023-12-29T04:29:07;3;3;
71858;PMS5003;59713;50.866;4.324;2023-12-29T04:30:08;4;1;
71858;PMS5003;59713;50.866;4.324;2023-12-29T04:31:07;4;1;
71858;PMS5003;59713;50.866;4.324;2023-12-29T04:32:07;4;1;
71858;PMS5003;59713;50.866;4.324;2023-12-29T04:33:08;6;4;
71858;PMS5003;59713;50.866;4.324;2023-12-29T04:34:07;6;4;
71858;PMS5003;59713;50.866;4.324;2023-12-29T04:34:08;6;4;
71858;PMS5003;59713;50.866;4.324;2023-12-29T04:35:07;6;4;
71858;PMS5003;59713;50.866;4.324;2023-12-29T04:36:07;6;1;
71858;PMS5003;59713;50.866;4.324;2023-12-29T04:37:07;6;1;
71858;PMS5003;59713;50.866;4.324;2023-12-29T04:38:07;6;1;
71858;PMS5003;59713;50.866;4.324;2023-12-29T04:39:07;5;1;
71858;PMS5003;59713;50.866;4.324;2023-12-29T04:40:08;5;1;
71858;PMS5003;59713;50.866;4.324;2023-12-29T04:41:07;5;1;
71858;PMS5003;59713;50.866;4.324;2023-12-29T04:42:08;3;3;
71858;PMS5003;59713;50.866;4.324;2023-12-29T04:43:08;3;3;
71858;PMS5003;59713;50.866;4.324;2023-12-29T04:43:08;3;3;
71858;PMS5003;59713;50.866;4.324;2023-12-29T04:44:08;3;3;
71858;PMS5003;59713;50.866;4.324;2023-12-29T04:45:08;4;4;
71858;PMS5003;59713;50.866;4.324;2023-12-29T04:46:08;4;4;
71858;PMS5003;59713;50.866;4.324;2023-12-29T04:47:08;4;4;
71858;PMS5003;59713;50.866;4.324;2023-12-29T04:48:08;4;3;
71858;PMS5003;59713;50.866;4.324;2023-12-29T04:49:08;4;3;
71858;PMS5003;59713;50.866;4.324;2023-12-29T04:50:08;4;3;
71858;PMS5003;59713;50.866;4.324;2023-12-29T04:51:08;5;2;
71858;PMS5003;59713;50.866;4.324;2023-12-29T04:52:08;5;2;
71858;PMS5003;59713;50.866;4.324;2023-12-29T04:53:08;5;2;
71858;PMS5003;59713;50.866;4.324;2023-12-29T04:53:08;5;2;
71858;PMS5003;59713;50.866;4.324;2023-12-29T04:54:08;5;1;
71858;PMS5003;59713;50.866;4.324;2023-12-29T04:55:08;5;1;
71858;PMS5003;59713;50.866;4.324;2023-12-29T04:56:08;5;1;
71858;PMS5003;59713;50.866;4.324;2023-12-29T04:57:08;5;2;
71858;PMS5003;59713;50.866;4.324;2023-12-29T04:58:08;5;2;
71858;PMS5003;59713;50.866;4.324;2023-12-29T04:59:08;5;2;
71858;PMS5003;59713;50.866;4.324;2023-12-29T05:00:08;4;2;
71858;PMS5003;59713;50.866;4.324;2023-12-29T05:01:08;4;2;
71858;PMS5003;59713;50.866;4.324;2023-12-29T05:02:08;4;2;
71858;PMS5003;59713;50.866;4.324;2023-12-29T05:02:08;4;2;
71858;PMS5003;59713;50.866;4.324;2023-12-29T05:03:08;3;2;
71858;PMS5003;59713;50.866;4.324;2023-12-29T05:04:08;3;2;
71858;PMS5003;59713;50.866;4.324;2023-12-29T05:05:08;3;2;
71858;PMS5003;59713;50.866;4.324;2023-12-29T05:06:08;4;2;
71858;PMS5003;59713;50.866;4.324;2023-12-29T05:07:08;4;2;
71858;PMS5003;59713;50.866;4.324;2023-12-29T05:08:08;4;2;
71858;PMS5003;59713;50.866;4.324;2023-12-29T05:09:08;1;1;
71858;PMS5003;59713;50.866;4.324;2023-12-29T05:10:08;1;1;
71858;PMS5003;59713;50.866;4.324;2023-12-29T05:11:08;1;1;
71858;PMS5003;59713;50.866;4.324;2023-12-29T05:11:08;1;1;
71858;PMS5003;59713;50.866;4.324;2023-12-29T05:12:08;2;2;
71858;PMS5003;59713;50.866;4.324;2023-12-29T05:13:08;2;2;
71858;PMS5003;59713;50.866;4.324;2023-12-29T05:14:08;2;2;
71858;PMS5003;59713;50.866;4.324;2023-12-29T05:15:08;1;1;
71858;PMS5003;59713;50.866;4.324;2023-12-29T05:16:08;1;1;
71858;PMS5003;59713;50.866;4.324;2023-12-29T05:17:11;1;1;
71858;PMS5003;59713;50.866;4.324;2023-12-29T05:18:08;5;2;
71858;PMS5003;59713;50.866;4.324;2023-12-29T05:19:08;5;2;
71858;PMS5003;59713;50.866;4.324;2023-12-29T05:20:08;5;2;
71858;PMS5003;59713;50.866;4.324;2023-12-29T05:21:13;7;2;
71858;PMS5003;59713;50.866;4.324;2023-12-29T05:21:13;7;2;
71858;PMS5003;59713;50.866;4.324;2023-12-29T05:22:08;7;2;
71858;PMS5003;59713;50.866;4.324;2023-12-29T05:23:08;7;2;
71858;PMS5003;59713;50.866;4.324;2023-12-29T05:24:08;3;2;
71858;PMS5003;59713;50.866;4.324;2023-12-29T05:25:08;3;2;
71858;PMS5003;59713;50.866;4.324;2023-12-29T05:26:08;3;2;
71858;PMS5003;59713;50.866;4.324;2023-12-29T05:27:08;7;4;
71858;PMS5003;59713;50.866;4.324;2023-12-29T05:28:08;7;4;
71858;PMS5003;59713;50.866;4.324;2023-12-29T05:29:08;7;4;
71858;PMS5003;59713;50.866;4.324;2023-12-29T05:30:08;5;2;
71858;PMS5003;59713;50.866;4.324;2023-12-29T05:30:08;5;2;
71858;PMS5003;59713;50.866;4.324;2023-12-29T05:31:08;5;2;
71858;PMS5003;59713;50.866;4.324;2023-12-29T05:32:08;5;2;
71858;PMS5003;59713;50.866;4.324;2023-12-29T05:33:08;4;3;
71858;PMS5003;59713;50.866;4.324;2023-12-29T05:34:08;4;3;
71858;PMS5003;59713;50.866;4.324;2023-12-29T05:35:08;4;3;
71858;PMS5003;59713;50.866;4.324;2023-12-29T05:36:09;4;3;
71858;PMS5003;59713;50.866;4.324;2023-12-29T05:37:08;4;3;
71858;PMS5003;59713;50.866;4.324;2023-12-29T05:38:08;4;3;
71858;PMS5003;59713;50.866;4.324;2023-12-29T05:39:08;4;2;
71858;PMS5003;59713;50.866;4.324;2023-12-29T05:39:08;4;2;
71858;PMS5003;59713;50.866;4.324;2023-12-29T05:40:08;4;2;
71858;PMS5003;59713;50.866;4.324;2023-12-29T05:41:08;4;2;
71858;PMS5003;59713;50.866;4.324;2023-12-29T05:42:08;6;3;
71858;PMS5003;59713;50.866;4.324;2023-12-29T05:43:09;6;3;
71858;PMS5003;59713;50.866;4.324;2023-12-29T05:44:08;6;3;
71858;PMS5003;59713;50.866;4.324;2023-12-29T05:45:08;6;3;
71858;PMS5003;59713;50.866;4.324;2023-12-29T05:46:08;6;3;
71858;PMS5003;59713;50.866;4.324;2023-12-29T05:47:08;6;3;
71858;PMS5003;59713;50.866;4.324;2023-12-29T05:48:08;7;2;
71858;PMS5003;59713;50.866;4.324;2023-12-29T05:49:08;7;2;
71858;PMS5003;59713;50.866;4.324;2023-12-29T05:49:08;7;2;
71858;PMS5003;59713;50.866;4.324;2023-12-29T05:50:08;7;2;
71858;PMS5003;59713;50.866;4.324;2023-12-29T05:51:08;8;2;
71858;PMS5003;59713;50.866;4.324;2023-12-29T05:52:08;8;2;
71858;PMS5003;59713;50.866;4.324;2023-12-29T05:53:08;8;2;
71858;PMS5003;59713;50.866;4.324;2023-12-29T05:54:08;5;4;
71858;PMS5003;59713;50.866;4.324;2023-12-29T05:55:08;5;4;
71858;PMS5003;59713;50.866;4.324;2023-12-29T05:56:08;5;4;
71858;PMS5003;59713;50.866;4.324;2023-12-29T05:57:08;7;2;
71858;PMS5003;59713;50.866;4.324;2023-12-29T05:58:08;7;2;
71858;PMS5003;59713;50.866;4.324;2023-12-29T05:58:08;7;2;
71858;PMS5003;59713;50.866;4.324;2023-12-29T05:59:08;7;2;
71858;PMS5003;59713;50.866;4.324;2023-12-29T06:00:08;3;3;
71858;PMS5003;59713;50.866;4.324;2023-12-29T06:01:08;3;3;
71858;PMS5003;59713;50.866;4.324;2023-12-29T06:02:08;3;3;
71858;PMS5003;59713;50.866;4.324;2023-12-29T06:03:08;9;5;
71858;PMS5003;59713;50.866;4.324;2023-12-29T06:04:08;9;5;
71858;PMS5003;59713;50.866;4.324;2023-12-29T06:05:10;9;5;
71858;PMS5003;59713;50.866;4.324;2023-12-29T06:06:08;9;3;
71858;PMS5003;59713;50.866;4.324;2023-12-29T06:07:08;9;3;
71858;PMS5003;59713;50.866;4.324;2023-12-29T06:08:08;9;3;
71858;PMS5003;59713;50.866;4.324;2023-12-29T06:09:08;6;2;
71858;PMS5003;59713;50.866;4.324;2023-12-29T06:10:10;6;2;
71858;PMS5003;59713;50.866;4.324;2023-12-29T06:11:08;6;2;
71858;PMS5003;59713;50.866;4.324;2023-12-29T06:12:08;8;3;
71858;PMS5003;59713;50.866;4.324;2023-12-29T06:13:08;8;3;